Time;durP1;ratioP1;P1;durP2;ratioP2;P2;SDS_P1;SDS_P2;PMS_P1;PMS_P2;Temp;Humidity;BMP_temperature;BMP_pressure;BME280_temperature;BME280_humidity;BME280_pressure;Samples;Min_cycle;Max_cycle;Signal;HPM_P1;HPM_P2
2022/07/19 00:02:05;;;;;;;2.53;0.90;;;23.00;73.10;;;;;;4973408;28;20030;-70
2022/07/19 00:04:32;;;;;;;0.00;0.00;;;23.00;73.50;;;;;;4972030;28;20078;-70
2022/07/19 00:06:58;;;;;;;0.43;0.20;;;22.90;73.60;;;;;;4973473;28;20035;-70
2022/07/19 00:09:25;;;;;;;4.10;2.28;;;22.90;73.60;;;;;;4973080;28;20078;-70
2022/07/19 00:11:51;;;;;;;1.35;0.40;;;22.80;73.50;;;;;;4971672;28;20031;-70
2022/07/19 00:14:18;;;;;;;0.28;0.28;;;22.80;73.80;;;;;;4971828;28;20062;-70
2022/07/19 00:16:44;;;;;;;1.25;0.75;;;22.70;74.10;;;;;;4973012;28;20029;-69
2022/07/19 00:19:10;;;;;;;1.58;1.05;;;22.60;74.30;;;;;;4972700;28;20031;-70
2022/07/19 00:21:35;;;;;;;0.22;0.22;;;22.60;74.70;;;;;;4971879;28;20038;-69
2022/07/19 00:24:01;;;;;;;0.00;0.00;;;22.50;74.90;;;;;;4973038;28;20085;-71
2022/07/19 00:26:29;;;;;;;0.30;0.30;;;22.50;75.00;;;;;;4971837;28;20105;-70
2022/07/19 00:28:56;;;;;;;0.28;0.10;;;22.50;75.30;;;;;;4955133;28;20043;-69
2022/07/19 00:31:25;;;;;;;0.20;0.20;;;22.50;74.70;;;;;;4955380;28;20026;-70
2022/07/19 00:33:51;;;;;;;1.02;0.68;;;22.50;74.70;;;;;;4972190;28;20045;-70
2022/07/19 00:36:18;;;;;;;0.20;0.20;;;22.60;74.50;;;;;;4972632;28;20019;-70
2022/07/19 00:38:45;;;;;;;0.57;0.43;;;22.70;74.30;;;;;;4970976;28;20031;-70
2022/07/19 00:41:11;;;;;;;3.10;1.00;;;22.80;74.10;;;;;;4971435;28;20041;-70
2022/07/19 00:43:41;;;;;;;7.88;1.08;;;22.80;74.90;;;;;;4972391;28;20034;-70
2022/07/19 00:46:19;;;;;;;0.75;0.75;;;22.70;75.30;;;;;;4972712;28;20490;-70
2022/07/19 00:48:46;;;;;;;2.53;0.88;;;22.90;73.80;;;;;;4972372;28;20030;-70
2022/07/19 00:51:14;;;;;;;9.18;0.88;;;23.00;73.40;;;;;;4972435;28;20031;-70
2022/07/19 00:53:41;;;;;;;0.65;0.10;;;23.10;72.30;;;;;;4972482;28;20035;-70
2022/07/19 00:56:10;;;;;;;0.20;0.20;;;23.20;72.50;;;;;;4972510;28;20423;-70
2022/07/19 00:58:38;;;;;;;1.88;0.75;;;23.20;71.20;;;;;;4972307;28;20031;-70
2022/07/19 01:01:07;;;;;;;1.80;1.42;;;23.30;71.10;;;;;;4970804;28;20027;-69
2022/07/19 01:03:39;;;;;;;0.28;0.28;;;23.40;71.30;;;;;;4970777;28;20122;-69
2022/07/19 01:06:07;;;;;;;2.05;0.47;;;23.30;71.10;;;;;;4972574;28;20485;-69
2022/07/19 01:08:34;;;;;;;0.22;0.20;;;23.30;71.40;;;;;;4962722;28;20561;-69
2022/07/19 01:11:02;;;;;;;0.60;0.52;;;23.10;71.30;;;;;;4977598;28;20410;-69
2022/07/19 01:13:27;;;;;;;1.75;0.63;;;22.90;71.80;;;;;;4974244;28;20509;-69
2022/07/19 01:15:53;;;;;;;0.32;0.30;;;22.90;71.90;;;;;;4981738;28;20067;-69
2022/07/19 01:18:20;;;;;;;0.35;0.35;;;22.90;71.60;;;;;;4972156;28;20426;-69
2022/07/19 01:20:45;;;;;;;1.20;0.88;;;22.80;71.40;;;;;;4972509;28;20113;-69
2022/07/19 01:23:11;;;;;;;1.20;1.10;;;22.90;71.70;;;;;;4970976;28;20465;-69
2022/07/19 01:25:37;;;;;;;0.32;0.10;;;22.80;71.60;;;;;;4990410;28;20045;-69
2022/07/19 01:28:06;;;;;;;1.98;0.70;;;22.70;71.80;;;;;;4991416;28;20022;-69
2022/07/19 01:30:33;;;;;;;0.63;0.30;;;22.60;72.20;;;;;;4974279;28;20038;-69
2022/07/19 01:32:59;;;;;;;0.40;0.40;;;22.60;72.70;;;;;;4973955;28;20035;-69
2022/07/19 01:35:25;;;;;;;1.00;0.95;;;22.50;72.90;;;;;;4974145;28;20034;-69
2022/07/19 01:37:52;;;;;;;0.15;0.15;;;22.40;73.30;;;;;;4974211;28;20475;-69
2022/07/19 01:40:19;;;;;;;0.30;0.30;;;22.30;73.50;;;;;;4973180;28;20072;-69
2022/07/19 01:42:46;;;;;;;0.93;0.85;;;22.30;73.90;;;;;;4970981;28;20098;-69
2022/07/19 01:45:13;;;;;;;0.20;0.20;;;22.30;74.40;;;;;;4971885;28;20034;-69
2022/07/19 01:47:42;;;;;;;1.00;0.63;;;22.20;75.30;;;;;;4975997;28;20402;-68
2022/07/19 01:50:15;;;;;;;0.50;0.32;;;22.10;75.80;;;;;;4974416;28;20027;-68
2022/07/19 01:52:41;;;;;;;0.20;0.20;;;22.10;76.40;;;;;;4974311;28;20023;-69
2022/07/19 01:55:07;;;;;;;0.00;0.00;;;22.00;76.90;;;;;;4958486;28;20037;-68
2022/07/19 01:57:33;;;;;;;0.00;0.00;;;21.90;77.20;;;;;;4975767;28;20448;-69
2022/07/19 01:59:59;;;;;;;0.10;0.10;;;21.90;77.50;;;;;;4975549;28;20035;-69
2022/07/19 02:02:25;;;;;;;0.10;0.10;;;21.70;77.90;;;;;;4975412;28;20045;-69
2022/07/19 02:04:51;;;;;;;0.70;0.60;;;21.60;78.40;;;;;;4975667;28;20501;-69
2022/07/19 02:07:17;;;;;;;0.15;0.08;;;21.60;78.70;;;;;;4975135;28;20030;-69
2022/07/19 02:09:43;;;;;;;4.03;0.65;;;21.40;79.70;;;;;;4973911;28;20494;-69
2022/07/19 02:12:09;;;;;;;1.25;0.50;;;21.40;79.50;;;;;;4974794;28;20634;-69
2022/07/19 02:14:35;;;;;;;0.28;0.20;;;21.40;79.90;;;;;;4977212;28;20105;-69
2022/07/19 02:17:01;;;;;;;0.30;0.30;;;21.50;79.80;;;;;;4994767;28;20181;-69
2022/07/19 02:19:26;;;;;;;0.30;0.30;;;21.50;80.20;;;;;;4994645;28;20060;-69
2022/07/19 02:21:52;;;;;;;0.40;0.22;;;21.40;80.40;;;;;;4994539;28;20026;-69
2022/07/19 02:24:18;;;;;;;0.30;0.17;;;21.30;80.50;;;;;;4976834;28;20030;-69
2022/07/19 02:26:44;;;;;;;0.08;0.08;;;21.10;81.80;;;;;;4977451;28;20034;-69
2022/07/19 02:29:09;;;;;;;0.40;0.30;;;21.00;82.00;;;;;;4994041;28;20042;-69
2022/07/19 02:31:35;;;;;;;1.08;0.73;;;20.90;82.30;;;;;;4994434;28;20031;-69
2022/07/19 02:34:02;;;;;;;0.28;0.28;;;20.80;83.10;;;;;;4994493;28;20026;-69
2022/07/19 02:36:27;;;;;;;0.32;0.20;;;20.70;84.00;;;;;;4994183;28;20037;-69
2022/07/19 02:38:53;;;;;;;0.57;0.57;;;20.70;83.90;;;;;;4992563;28;20031;-69
2022/07/19 02:41:19;;;;;;;0.90;0.52;;;20.60;84.10;;;;;;4994335;28;20036;-69
2022/07/19 02:43:45;;;;;;;0.70;0.57;;;20.60;84.20;;;;;;4993834;28;20026;-69
2022/07/19 02:46:11;;;;;;;0.22;0.20;;;20.70;84.30;;;;;;4994181;28;20590;-68
2022/07/19 02:48:37;;;;;;;0.00;0.00;;;20.70;84.80;;;;;;5004739;23;20109;-67
2022/07/19 02:51:03;;;;;;;1.65;0.90;;;20.70;84.80;;;;;;4976363;28;20054;-67
2022/07/19 02:53:29;;;;;;;0.38;0.38;;;20.70;85.40;;;;;;4976087;28;20026;-67
2022/07/19 02:55:54;;;;;;;0.98;0.95;;;20.60;85.20;;;;;;4994184;28;20026;-67
2022/07/19 02:58:20;;;;;;;0.10;0.10;;;20.60;85.50;;;;;;4990440;28;20030;-67
2022/07/19 03:00:47;;;;;;;0.73;0.73;;;20.60;85.70;;;;;;4974037;28;20089;-67
2022/07/19 03:05:57;;;;;;;0.65;0.40;;;20.60;86.60;;;;;;4962839;28;20038;-67
2022/07/19 03:08:23;;;;;;;0.45;0.45;;;20.70;86.70;;;;;;4980387;28;20140;-67
2022/07/19 03:10:49;;;;;;;0.22;0.20;;;20.60;86.50;;;;;;4981878;28;20042;-67
2022/07/19 03:13:15;;;;;;;6.68;2.15;;;20.60;86.60;;;;;;4991450;28;20022;-67
2022/07/19 03:15:41;;;;;;;0.22;0.22;;;20.60;86.40;;;;;;4985981;28;20501;-66
2022/07/19 03:18:06;;;;;;;0.38;0.38;;;20.80;86.50;;;;;;4975862;28;20046;-66
2022/07/19 03:20:32;;;;;;;0.08;0.08;;;20.80;85.50;;;;;;4993206;28;20363;-67
2022/07/19 03:22:58;;;;;;;0.57;0.57;;;20.80;85.60;;;;;;4975424;28;20033;-67
2022/07/19 03:25:24;;;;;;;0.13;0.13;;;20.70;85.40;;;;;;4978830;28;20035;-67
2022/07/19 03:27:50;;;;;;;0.08;0.08;;;20.70;86.00;;;;;;4972363;28;20035;-67
2022/07/19 03:30:16;;;;;;;2.10;0.93;;;20.90;84.90;;;;;;4972064;28;20049;-67
2022/07/19 03:32:42;;;;;;;0.47;0.45;;;21.00;84.60;;;;;;4973388;28;20034;-67
2022/07/19 03:35:08;;;;;;;0.20;0.20;;;20.90;84.50;;;;;;4973623;28;20077;-67
2022/07/19 03:37:34;;;;;;;0.70;0.47;;;21.00;84.50;;;;;;4988487;28;20041;-67
2022/07/19 03:40:00;;;;;;;1.02;0.30;;;21.10;84.60;;;;;;4973299;28;20121;-67
2022/07/19 03:42:25;;;;;;;0.20;0.20;;;21.20;84.40;;;;;;4991175;28;20036;-67
2022/07/19 03:44:51;;;;;;;2.72;0.80;;;21.20;83.50;;;;;;4975322;28;20125;-67
2022/07/19 03:47:17;;;;;;;0.35;0.35;;;21.20;83.50;;;;;;4992916;28;20471;-67
2022/07/19 03:49:43;;;;;;;0.77;0.68;;;21.20;83.90;;;;;;4974795;28;20092;-67
2022/07/19 03:52:08;;;;;;;0.45;0.30;;;21.20;84.00;;;;;;4992117;28;20080;-68
2022/07/19 03:54:34;;;;;;;5.63;0.60;;;21.30;83.70;;;;;;4992410;28;20114;-67
2022/07/19 03:57:00;;;;;;;0.70;0.60;;;21.40;83.90;;;;;;4992154;28;20030;-68
2022/07/19 03:59:25;;;;;;;1.40;1.02;;;21.40;83.50;;;;;;4991322;28;20052;-68
2022/07/19 04:01:51;;;;;;;0.52;0.43;;;21.30;83.60;;;;;;4969804;28;20491;-68
2022/07/19 04:04:17;;;;;;;0.30;0.30;;;21.00;84.20;;;;;;4969996;28;20030;-69
2022/07/19 04:06:43;;;;;;;0.52;0.52;;;20.80;85.30;;;;;;4969807;28;20027;-68
2022/07/19 04:09:09;;;;;;;1.48;1.13;;;20.70;85.90;;;;;;4947803;28;20044;-69
2022/07/19 04:11:35;;;;;;;0.75;0.45;;;20.60;86.40;;;;;;4968121;28;20051;-68
2022/07/19 04:14:01;;;;;;;0.28;0.28;;;20.50;86.70;;;;;;4967519;28;20034;-69
2022/07/19 04:16:27;;;;;;;0.82;0.65;;;20.50;87.10;;;;;;4958261;28;20391;-68
2022/07/19 04:18:53;;;;;;;0.50;0.40;;;20.50;87.50;;;;;;4952922;28;20027;-69
2022/07/19 04:21:19;;;;;;;1.70;1.10;;;20.50;87.30;;;;;;4983816;28;20031;-68
2022/07/19 04:23:44;;;;;;;0.85;0.52;;;20.50;87.50;;;;;;4953123;29;20023;-69
2022/07/19 04:26:10;;;;;;;0.10;0.10;;;20.40;87.80;;;;;;4952749;28;20039;-68
2022/07/19 04:28:36;;;;;;;0.68;0.68;;;20.60;88.00;;;;;;4953235;28;20042;-70
2022/07/19 04:31:02;;;;;;;0.43;0.43;;;20.60;87.60;;;;;;4962353;28;20178;-69
2022/07/19 04:33:27;;;;;;;15.70;1.27;;;20.70;87.10;;;;;;4986700;28;20476;-69
2022/07/19 04:35:54;;;;;;;0.28;0.28;;;20.80;86.50;;;;;;4962987;28;20033;-69
2022/07/19 04:38:21;;;;;;;0.32;0.32;;;20.90;85.30;;;;;;4969981;28;20383;-70
2022/07/19 04:40:47;;;;;;;0.00;0.00;;;21.20;83.40;;;;;;4972310;28;20390;-68
2022/07/19 04:43:13;;;;;;;0.70;0.52;;;21.50;81.70;;;;;;4972247;28;20386;-70
2022/07/19 04:45:44;;;;;;;0.00;0.00;;;21.70;80.60;;;;;;4971066;28;20038;-70
2022/07/19 04:48:13;;;;;;;0.75;0.45;;;21.90;79.80;;;;;;4955390;28;20133;-68
2022/07/19 04:50:40;;;;;;;0.52;0.32;;;22.00;79.40;;;;;;4971789;28;20047;-69
2022/07/19 04:53:07;;;;;;;5.82;1.38;;;22.10;79.30;;;;;;4971013;28;20027;-70
2022/07/19 04:55:35;;;;;;;1.48;1.17;;;22.10;79.40;;;;;;4986803;28;20497;-70
2022/07/19 04:58:01;;;;;;;0.15;0.10;;;22.00;79.90;;;;;;4972535;28;20121;-69
2022/07/19 05:00:27;;;;;;;0.17;0.17;;;21.90;80.30;;;;;;4970183;28;20122;-70
2022/07/19 05:02:55;;;;;;;1.00;1.00;;;21.80;80.70;;;;;;4987048;28;20035;-69
2022/07/19 05:05:22;;;;;;;0.40;0.32;;;21.70;81.00;;;;;;4971759;28;20105;-70
2022/07/19 05:07:48;;;;;;;1.00;0.73;;;21.70;80.80;;;;;;4987074;28;20033;-70
2022/07/19 05:10:14;;;;;;;0.20;0.20;;;21.90;80.20;;;;;;4971594;28;20130;-70
2022/07/19 05:12:40;;;;;;;0.22;0.20;;;22.00;80.20;;;;;;4986579;28;20613;-69
2022/07/19 05:15:08;;;;;;;0.32;0.28;;;22.10;80.20;;;;;;4985833;28;20102;-70
2022/07/19 05:17:34;;;;;;;4.07;1.90;;;21.90;80.70;;;;;;4952620;28;20066;-70
2022/07/19 05:20:00;;;;;;;0.20;0.20;;;21.80;81.40;;;;;;4953326;28;20031;-70
2022/07/19 05:22:26;;;;;;;0.10;0.10;;;21.80;81.90;;;;;;4970987;28;20042;-70
2022/07/19 05:24:53;;;;;;;0.57;0.55;;;21.70;81.90;;;;;;4956546;28;20043;-69
2022/07/19 05:27:19;;;;;;;6.00;0.70;;;21.70;82.20;;;;;;4956629;28;20078;-70
2022/07/19 05:29:45;;;;;;;0.40;0.40;;;21.60;82.20;;;;;;4987193;28;20055;-70
2022/07/19 05:32:11;;;;;;;6.50;0.68;;;21.60;82.30;;;;;;4974876;28;20514;-70
2022/07/19 05:34:37;;;;;;;0.75;0.60;;;21.60;82.50;;;;;;4975449;28;20403;-69
2022/07/19 05:37:03;;;;;;;3.33;0.55;;;21.50;82.30;;;;;;4958177;28;20110;-70
2022/07/19 05:39:29;;;;;;;0.05;0.05;;;21.60;82.70;;;;;;4955623;28;20152;-69
2022/07/19 05:41:54;;;;;;;0.50;0.38;;;21.60;83.50;;;;;;4963929;28;20110;-69
2022/07/19 05:44:21;;;;;;;2.38;1.20;;;21.60;82.80;;;;;;4956187;28;20034;-70
2022/07/19 05:46:47;;;;;;;2.25;0.95;;;21.70;82.30;;;;;;4973125;28;20517;-69
2022/07/19 05:49:13;;;;;;;0.50;0.45;;;21.80;82.30;;;;;;4972807;28;20039;-72
2022/07/19 05:51:39;;;;;;;0.60;0.45;;;21.80;81.90;;;;;;4961311;28;20031;-69
2022/07/19 05:54:06;;;;;;;2.28;1.13;;;21.90;81.40;;;;;;4966100;28;20479;-70
2022/07/19 05:56:32;;;;;;;0.00;0.00;;;21.90;81.30;;;;;;4976204;28;20027;-72
2022/07/19 05:58:58;;;;;;;0.10;0.10;;;22.00;80.70;;;;;;4955703;28;20141;-73
2022/07/19 06:01:25;;;;;;;1.77;1.05;;;22.00;80.40;;;;;;4970732;28;20031;-67
2022/07/19 06:03:56;;;;;;;0.10;0.10;;;22.10;80.40;;;;;;4955821;29;20031;-68
2022/07/19 06:06:25;;;;;;;0.10;0.10;;;22.20;80.50;;;;;;4970220;28;20039;-68
2022/07/19 06:08:52;;;;;;;0.10;0.10;;;22.20;80.20;;;;;;4969923;28;20051;-69
2022/07/19 06:11:18;;;;;;;2.17;1.20;;;22.20;80.40;;;;;;4970508;28;20122;-69
2022/07/19 06:13:45;;;;;;;0.20;0.20;;;22.30;80.00;;;;;;4955674;28;20035;-69
2022/07/19 06:16:12;;;;;;;0.25;0.25;;;22.50;79.80;;;;;;4964824;28;20027;-69
2022/07/19 06:18:38;;;;;;;0.57;0.22;;;22.50;79.40;;;;;;4964226;28;20033;-69
2022/07/19 06:21:16;;;;;;;0.28;0.28;;;22.60;79.40;;;;;;4986744;28;20130;-70
2022/07/19 06:23:42;;;;;;;0.00;0.00;;;22.70;79.00;;;;;;4986434;28;20028;-69
2022/07/19 06:26:10;;;;;;;0.00;0.00;;;22.80;78.70;;;;;;4986371;28;20443;-70
2022/07/19 06:28:37;;;;;;;0.30;0.30;;;22.90;78.30;;;;;;4955616;28;20407;-70
2022/07/19 06:31:03;;;;;;;0.45;0.45;;;23.00;78.00;;;;;;4959384;28;20032;-70
2022/07/19 06:33:29;;;;;;;0.55;0.52;;;23.10;77.60;;;;;;4945476;28;20125;-70
2022/07/19 06:35:54;;;;;;;0.43;0.20;;;23.20;77.70;;;;;;4947917;28;20042;-70
2022/07/19 06:38:21;;;;;;;0.30;0.30;;;23.30;77.20;;;;;;4941933;28;20078;-70
2022/07/19 06:40:47;;;;;;;0.45;0.32;;;23.50;76.50;;;;;;4963949;28;20062;-70
2022/07/19 06:43:12;;;;;;;0.17;0.13;;;23.60;76.40;;;;;;4970860;28;20550;-70
2022/07/19 06:45:39;;;;;;;0.10;0.10;;;23.70;76.30;;;;;;4950495;28;20023;-70
2022/07/19 06:48:05;;;;;;;0.00;0.00;;;23.80;76.00;;;;;;4971221;28;20102;-70
2022/07/19 06:50:32;;;;;;;8.50;0.90;;;23.90;75.00;;;;;;4970824;28;20105;-70
2022/07/19 06:52:57;;;;;;;0.73;0.70;;;24.00;74.50;;;;;;4954993;29;20027;-70
2022/07/19 06:55:26;;;;;;;0.30;0.30;;;24.10;74.20;;;;;;4950858;28;20267;-70
2022/07/19 06:57:52;;;;;;;0.52;0.47;;;24.10;74.60;;;;;;4971018;28;20027;-70
2022/07/19 07:00:18;;;;;;;4.82;1.00;;;24.20;74.50;;;;;;4973962;28;20034;-70
2022/07/19 07:02:44;;;;;;;0.98;0.60;;;24.30;73.50;;;;;;4969087;28;20054;-70
2022/07/19 07:05:11;;;;;;;0.25;0.25;;;24.40;73.10;;;;;;4956096;28;20035;-71
2022/07/19 07:07:39;;;;;;;1.38;0.52;;;24.50;73.10;;;;;;4937869;29;20032;-72
2022/07/19 07:10:07;;;;;;;0.35;0.30;;;24.70;72.60;;;;;;4954254;28;20028;-72
2022/07/19 07:12:34;;;;;;;0.73;0.50;;;24.80;71.30;;;;;;4942793;28;20074;-73
2022/07/19 07:14:59;;;;;;;13.95;0.73;;;24.80;71.10;;;;;;4935450;28;20118;-75
2022/07/19 07:17:25;;;;;;;0.10;0.10;;;24.90;71.60;;;;;;4971172;28;20106;-74
2022/07/19 07:19:51;;;;;;;0.28;0.28;;;25.00;71.50;;;;;;4970382;28;20108;-74
2022/07/19 07:22:17;;;;;;;0.50;0.50;;;25.10;70.90;;;;;;4970760;28;20031;-77
2022/07/19 07:24:43;;;;;;;0.95;0.95;;;25.30;70.90;;;;;;4969751;28;20162;-76
2022/07/19 07:27:09;;;;;;;0.00;0.00;;;25.40;71.00;;;;;;4981020;28;20034;-75
2022/07/19 07:29:34;;;;;;;0.47;0.40;;;25.50;71.10;;;;;;4984463;28;20031;-78
2022/07/19 07:32:00;;;;;;;5.93;1.85;;;25.60;71.10;;;;;;4974124;28;20037;-66
2022/07/19 07:34:26;;;;;;;0.25;0.25;;;25.70;70.90;;;;;;4971100;28;20032;-66
2022/07/19 07:36:52;;;;;;;0.43;0.43;;;25.70;70.60;;;;;;4977666;28;20030;-67
2022/07/19 07:39:17;;;;;;;0.00;0.00;;;25.80;70.70;;;;;;4955452;28;20065;-66
2022/07/19 07:41:43;;;;;;;1.23;0.77;;;25.80;70.30;;;;;;4982527;28;20042;-66
2022/07/19 07:44:09;;;;;;;0.13;0.13;;;25.90;69.20;;;;;;4971231;28;20030;-67
2022/07/19 07:46:35;;;;;;;9.63;0.70;;;26.00;68.60;;;;;;4964833;28;20537;-67
2022/07/19 07:49:01;;;;;;;1.25;0.75;;;26.10;68.10;;;;;;4953591;28;20050;-67
2022/07/19 07:51:27;;;;;;;1.08;0.38;;;26.20;68.10;;;;;;4980272;28;20039;-67
2022/07/19 07:53:53;;;;;;;0.52;0.45;;;26.30;68.10;;;;;;4953113;28;20031;-67
2022/07/19 07:56:19;;;;;;;0.77;0.63;;;26.40;67.70;;;;;;4965334;28;20085;-67
2022/07/19 07:58:45;;;;;;;1.48;1.05;;;26.40;67.90;;;;;;4955249;28;20448;-65
2022/07/19 08:01:10;;;;;;;0.52;0.40;;;26.50;67.90;;;;;;4962751;28;20117;-65
2022/07/19 08:03:36;;;;;;;1.75;0.52;;;26.60;67.20;;;;;;4984054;28;20034;-66
2022/07/19 08:06:02;;;;;;;19.17;0.90;;;26.70;67.10;;;;;;4961025;28;20042;-66
2022/07/19 08:08:28;;;;;;;1.35;0.55;;;26.80;67.10;;;;;;4986959;28;20031;-66
2022/07/19 08:10:55;;;;;;;1.45;1.13;;;26.90;66.90;;;;;;4963986;28;20031;-66
2022/07/19 08:13:22;;;;;;;0.90;0.80;;;27.00;66.30;;;;;;4968573;28;20042;-66
2022/07/19 08:15:49;;;;;;;1.30;0.52;;;27.10;66.10;;;;;;4963946;28;20030;-66
2022/07/19 08:18:15;;;;;;;0.25;0.20;;;27.20;65.70;;;;;;4967881;28;20031;-66
2022/07/19 08:20:40;;;;;;;0.47;0.43;;;27.30;66.00;;;;;;4977521;28;20028;-65
2022/07/19 08:23:06;;;;;;;16.67;1.33;;;27.50;65.40;;;;;;4982239;28;20372;-66
2022/07/19 08:25:34;;;;;;;1.15;0.88;;;27.60;64.40;;;;;;4962545;28;20053;-66
2022/07/19 08:28:00;;;;;;;0.85;0.63;;;27.70;64.70;;;;;;4979453;28;20035;-65
2022/07/19 08:30:26;;;;;;;3.05;0.70;;;27.80;65.10;;;;;;4956930;28;20079;-65
2022/07/19 08:32:52;;;;;;;1.17;1.08;;;27.90;64.60;;;;;;4956370;28;20087;-66
2022/07/19 08:35:18;;;;;;;1.27;0.88;;;27.90;64.90;;;;;;4975982;28;20023;-66
2022/07/19 08:37:44;;;;;;;3.00;1.25;;;28.00;64.40;;;;;;4972648;28;20039;-67
2022/07/19 08:40:10;;;;;;;0.20;0.20;;;28.10;64.30;;;;;;4951742;28;20034;-66
2022/07/19 08:42:36;;;;;;;1.70;1.05;;;28.20;63.60;;;;;;4968564;28;20122;-67
2022/07/19 08:45:08;;;;;;;0.95;0.88;;;28.40;63.50;;;;;;4956559;28;20032;-67
2022/07/19 08:47:36;;;;;;;7.57;3.03;;;28.60;62.20;;;;;;4952471;28;20510;-66
2022/07/19 08:50:06;;;;;;;0.85;0.80;;;28.70;61.50;;;;;;4958359;28;20050;-66
2022/07/19 08:52:33;;;;;;;0.70;0.35;;;28.90;61.70;;;;;;4967127;28;20058;-66
2022/07/19 08:55:00;;;;;;;0.20;0.20;;;29.10;61.40;;;;;;4973716;28;20501;-67
2022/07/19 09:00:12;;;;;;;0.88;0.52;;;29.30;60.80;;;;;;4960119;28;20034;-67
2022/07/19 09:02:38;;;;;;;1.85;0.40;;;29.30;60.60;;;;;;4981241;28;20034;-67
2022/07/19 09:05:08;;;;;;;0.10;0.10;;;29.40;60.20;;;;;;4970805;28;20034;-67
2022/07/19 09:07:36;;;;;;;0.22;0.15;;;29.60;59.40;;;;;;4946935;28;20142;-78
2022/07/19 09:10:23;;;;;;;0.70;0.60;;;29.70;59.10;;;;;;4974609;28;20535;-67
2022/07/19 09:13:18;;;;;;;0.93;0.65;;;29.90;59.50;;;;;;4953893;28;20027;-68
2022/07/19 09:15:52;;;;;;;2.88;1.60;;;30.00;59.10;;;;;;4958152;28;20035;-65
2022/07/19 09:18:28;;;;;;;0.15;0.13;;;30.20;56.70;;;;;;4984285;28;20491;-67
2022/07/19 09:21:03;;;;;;;0.03;0.03;;;30.30;56.10;;;;;;4975528;28;20039;-66
2022/07/19 09:23:30;;;;;;;0.03;0.03;;;30.70;56.40;;;;;;4971217;28;20035;-66
2022/07/19 09:25:59;;;;;;;0.10;0.10;;;31.10;55.70;;;;;;4973717;28;20027;-66
2022/07/19 09:28:29;;;;;;;1.70;1.38;;;31.10;55.30;;;;;;4963959;28;20035;-66
2022/07/19 09:30:57;;;;;;;0.00;0.00;;;31.30;55.60;;;;;;4961415;28;20035;-67
2022/07/19 09:33:29;;;;;;;0.30;0.30;;;31.40;54.80;;;;;;4952734;28;20025;-67
2022/07/19 09:36:02;;;;;;;0.22;0.13;;;31.40;54.70;;;;;;4960405;28;20484;-67
2022/07/19 09:38:33;;;;;;;2.72;1.15;;;31.60;55.10;;;;;;4985249;28;20085;-67
2022/07/19 09:41:15;;;;;;;0.63;0.63;;;31.70;54.90;;;;;;4975166;28;20046;-67
2022/07/19 09:44:03;;;;;;;0.10;0.00;;;31.90;54.50;;;;;;4968451;28;20483;-67
2022/07/19 09:46:40;;;;;;;0.00;0.00;;;31.90;54.70;;;;;;4963076;28;20188;-66
2022/07/19 09:49:14;;;;;;;0.85;0.32;;;32.10;54.50;;;;;;4963299;28;20127;-67
2022/07/19 09:51:47;;;;;;;3.40;1.02;;;32.30;54.10;;;;;;4956275;28;20495;-67
2022/07/19 09:54:19;;;;;;;6.93;0.45;;;32.40;53.20;;;;;;4964096;28;20032;-67
2022/07/19 09:56:48;;;;;;;0.10;0.10;;;32.40;51.50;;;;;;4971111;28;20419;-68
2022/07/19 09:59:14;;;;;;;0.10;0.10;;;32.50;51.30;;;;;;4966981;28;20035;-67
2022/07/19 10:01:40;;;;;;;0.03;0.03;;;32.40;51.40;;;;;;4975078;28;20426;-67
2022/07/19 10:04:11;;;;;;;0.00;0.00;;;32.40;51.80;;;;;;4955707;28;20062;-67
2022/07/19 10:06:39;;;;;;;0.45;0.43;;;32.50;51.90;;;;;;4953906;28;20089;-67
2022/07/19 10:09:08;;;;;;;0.08;0.08;;;32.50;51.60;;;;;;4954702;29;20027;-68
2022/07/19 10:11:35;;;;;;;0.10;0.10;;;32.60;51.40;;;;;;4966398;28;20031;-66
2022/07/19 10:14:02;;;;;;;0.57;0.35;;;32.80;52.30;;;;;;4970061;28;20479;-66
2022/07/19 10:16:49;;;;;;;0.17;0.10;;;32.90;52.00;;;;;;4969544;28;20034;-67
2022/07/19 10:19:34;;;;;;;0.00;0.00;;;33.00;52.80;;;;;;4978706;28;20027;-67
2022/07/19 10:22:01;;;;;;;0.95;0.57;;;33.00;50.90;;;;;;4953149;28;20035;-67
2022/07/19 10:24:57;;;;;;;1.13;0.22;;;33.20;50.10;;;;;;4969786;28;20439;-66
2022/07/19 10:27:26;;;;;;;0.43;0.40;;;33.30;49.40;;;;;;4987069;28;20053;-68
2022/07/19 10:29:59;;;;;;;4.75;1.20;;;33.70;50.60;;;;;;4976557;28;20035;-68
2022/07/19 10:32:31;;;;;;;1.50;0.75;;;33.80;49.20;;;;;;4974298;28;20035;-67
2022/07/19 10:35:17;;;;;;;0.47;0.43;;;33.80;49.10;;;;;;4976374;28;20038;-67
2022/07/19 10:38:05;;;;;;;0.10;0.10;;;34.00;48.80;;;;;;4974447;28;20121;-68
2022/07/19 10:40:48;;;;;;;0.20;0.20;;;34.00;48.90;;;;;;4971876;28;20115;-68
2022/07/19 10:43:15;;;;;;;4.70;0.55;;;34.10;49.00;;;;;;4931969;28;20066;-68
2022/07/19 10:45:56;;;;;;;0.65;0.55;;;34.20;48.90;;;;;;4975949;28;20090;-68
2022/07/19 10:48:45;;;;;;;0.10;0.10;;;34.40;48.20;;;;;;4960718;28;20035;-68
2022/07/19 10:51:29;;;;;;;0.68;0.52;;;34.20;48.90;;;;;;4970686;28;20063;-69
2022/07/19 10:54:00;;;;;;;0.10;0.10;;;34.30;47.90;;;;;;4961671;28;20035;-66
2022/07/19 10:56:30;;;;;;;0.00;0.00;;;34.20;48.20;;;;;;4969052;28;20035;-67
2022/07/19 10:59:00;;;;;;;0.90;0.90;;;34.30;48.10;;;;;;4965359;28;20058;-68
2022/07/19 11:01:30;;;;;;;0.00;0.00;;;34.40;48.40;;;;;;4904639;28;20423;-68
2022/07/19 11:04:23;;;;;;;2.00;0.63;;;34.40;48.10;;;;;;4969461;28;20027;-68
2022/07/19 11:06:50;;;;;;;3.65;0.45;;;34.40;47.40;;;;;;4956494;28;20103;-67
2022/07/19 11:09:15;;;;;;;0.00;0.00;;;34.40;47.30;;;;;;4956564;28;20046;-68
2022/07/19 11:11:41;;;;;;;3.85;0.75;;;34.70;48.00;;;;;;4984649;28;20056;-68
2022/07/19 11:14:07;;;;;;;0.10;0.10;;;34.70;47.70;;;;;;4965007;28;20027;-68
2022/07/19 11:16:33;;;;;;;0.00;0.00;;;34.90;47.10;;;;;;4956584;28;20090;-68
2022/07/19 11:19:07;;;;;;;0.80;0.60;;;34.90;47.20;;;;;;4976228;28;20456;-69
2022/07/19 11:21:36;;;;;;;0.35;0.22;;;35.10;47.10;;;;;;4956652;28;20820;-69
2022/07/19 11:24:05;;;;;;;0.57;0.57;;;34.90;47.00;;;;;;4976790;28;20043;-68
2022/07/19 11:26:39;;;;;;;0.13;0.13;;;35.10;47.20;;;;;;4984138;28;20042;-66
2022/07/19 11:29:05;;;;;;;0.38;0.17;;;35.00;47.40;;;;;;4979369;28;20035;-67
2022/07/19 11:31:32;;;;;;;0.05;0.05;;;35.40;47.30;;;;;;4968900;28;20037;-69
2022/07/19 11:34:00;;;;;;;0.40;0.40;;;35.10;46.80;;;;;;4978131;28;20111;-67
2022/07/19 11:36:27;;;;;;;0.00;0.00;;;35.30;47.50;;;;;;4983183;28;20027;-67
2022/07/19 11:39:02;;;;;;;0.70;0.30;;;35.50;46.70;;;;;;4964983;28;20111;-67
2022/07/19 11:41:31;;;;;;;0.85;0.45;;;35.60;46.20;;;;;;4982839;28;20031;-68
2022/07/19 11:44:02;;;;;;;0.17;0.10;;;35.80;45.80;;;;;;4979530;28;20030;-68
2022/07/19 11:46:34;;;;;;;0.75;0.55;;;35.80;46.20;;;;;;4968831;28;20027;-68
2022/07/19 11:49:02;;;;;;;0.22;0.20;;;36.00;46.10;;;;;;4964365;28;20618;-67
2022/07/19 11:51:30;;;;;;;0.40;0.32;;;36.20;46.10;;;;;;4983306;28;20085;-67
2022/07/19 11:53:58;;;;;;;0.20;0.20;;;36.60;45.80;;;;;;4979634;28;20035;-68
2022/07/19 11:56:29;;;;;;;0.03;0.00;;;36.70;45.90;;;;;;4964289;28;20035;-67
2022/07/19 11:59:01;;;;;;;0.00;0.00;;;36.80;45.60;;;;;;4978829;28;20031;-67
2022/07/19 12:01:29;;;;;;;0.00;0.00;;;37.00;45.30;;;;;;4941554;28;20065;-68
2022/07/19 12:04:03;;;;;;;0.00;0.00;;;37.30;46.40;;;;;;4979180;28;20054;-68
2022/07/19 12:06:51;;;;;;;0.00;0.00;;;37.50;45.10;;;;;;4961969;28;20130;-68
2022/07/19 12:09:26;;;;;;;1.35;0.50;;;37.70;45.00;;;;;;4958862;28;20033;-68
2022/07/19 12:11:56;;;;;;;0.17;0.17;;;37.20;44.20;;;;;;4985404;28;20053;-68
2022/07/19 12:14:28;;;;;;;0.00;0.00;;;37.20;45.50;;;;;;4936370;28;20131;-68
2022/07/19 12:17:21;;;;;;;0.03;0.00;;;37.40;44.80;;;;;;4972651;28;20038;-68
2022/07/19 12:19:54;;;;;;;0.68;0.43;;;37.30;44.10;;;;;;4964098;28;20101;-68
2022/07/19 12:22:46;;;;;;;0.63;0.38;;;37.20;44.40;;;;;;4967736;28;20463;-68
2022/07/19 12:25:12;;;;;;;0.10;0.10;;;37.30;44.10;;;;;;4952815;28;20174;-69
2022/07/19 12:27:40;;;;;;;0.10;0.03;;;37.20;44.50;;;;;;4972215;28;20486;-67
2022/07/19 12:30:17;;;;;;;1.70;0.60;;;37.30;43.80;;;;;;4958440;28;20349;-68
2022/07/19 12:32:46;;;;;;;0.22;0.20;;;37.30;43.70;;;;;;4985793;28;20030;-66
2022/07/19 12:35:14;;;;;;;0.50;0.25;;;36.90;43.60;;;;;;4961520;28;20027;-68
2022/07/19 12:37:46;;;;;;;3.72;0.25;;;37.00;43.10;;;;;;4950732;28;20546;-69
2022/07/19 12:40:24;;;;;;;0.00;0.00;;;37.10;42.60;;;;;;4981077;28;20489;-67
2022/07/19 12:43:03;;;;;;;1.45;0.52;;;37.50;42.90;;;;;;4961455;28;20471;-69
2022/07/19 12:45:43;;;;;;;0.20;0.20;;;37.90;43.20;;;;;;4975061;28;20042;-69
2022/07/19 12:48:16;;;;;;;0.00;0.00;;;37.80;43.30;;;;;;4953278;28;20060;-68
2022/07/19 12:50:49;;;;;;;0.65;0.47;;;38.00;42.50;;;;;;4958514;28;20035;-68
2022/07/19 12:53:17;;;;;;;0.47;0.40;;;37.80;42.10;;;;;;4957692;28;20444;-69
2022/07/19 12:55:43;;;;;;;0.20;0.20;;;37.70;42.30;;;;;;4973213;28;20027;-68
2022/07/19 12:58:11;;;;;;;0.10;0.10;;;38.00;42.60;;;;;;4965877;28;20033;-67